Time;durP1;ratioP1;P1;durP2;ratioP2;P2;SDS_P1;SDS_P2;PMS_P1;PMS_P2;Temp;Humidity;BMP_temperature;BMP_pressure;BME280_temperature;BME280_humidity;BME280_pressure;Samples;Min_cycle;Max_cycle;Signal;HPM_P1;HPM_P2
2022/06/04 00:00:16;;;;;;;24.60;22.20;;;18.00;99.90;;;;;;5016824;28;20493;-55
2022/06/04 00:02:44;;;;;;;25.07;22.60;;;18.10;99.90;;;;;;5016999;28;20442;-55
2022/06/04 00:05:14;;;;;;;25.10;22.70;;;18.10;99.90;;;;;;5016764;28;20500;-55
2022/06/04 00:07:42;;;;;;;24.20;21.90;;;18.00;99.90;;;;;;5016602;28;20490;-55
2022/06/04 00:15:45;;;;;;;22.73;20.63;;;18.00;99.90;;;;;;5016631;28;20507;-56
2022/06/04 00:18:12;;;;;;;23.77;21.67;;;18.10;99.90;;;;;;5016172;28;20450;-56
2022/06/04 00:20:41;;;;;;;22.17;20.13;;;18.10;99.90;;;;;;5016604;28;20447;-56
2022/06/04 00:23:09;;;;;;;24.40;22.07;;;18.10;99.90;;;;;;5016240;28;20527;-56
2022/06/04 00:25:39;;;;;;;24.57;22.17;;;18.00;99.90;;;;;;5021286;28;20987;-56
2022/06/04 00:28:10;;;;;;;23.43;21.37;;;18.00;99.90;;;;;;5036164;28;20527;-56
2022/06/04 00:30:38;;;;;;;23.57;21.47;;;18.00;99.90;;;;;;5036125;28;20581;-55
2022/06/04 00:33:06;;;;;;;23.57;21.23;;;18.00;99.90;;;;;;5035738;28;20453;-55
2022/06/04 00:35:34;;;;;;;25.50;22.90;;;18.10;99.90;;;;;;5036147;28;20454;-56
2022/06/04 00:38:01;;;;;;;25.03;22.83;;;18.10;99.90;;;;;;5035987;28;20462;-55
2022/06/04 00:40:37;;;;;;;27.67;24.87;;;18.10;99.90;;;;;;5035550;28;20901;-56
2022/06/04 00:43:04;;;;;;;24.57;22.13;;;18.00;99.90;;;;;;5035916;28;20452;-55
2022/06/04 00:46:16;;;;;;;24.53;21.93;;;18.00;99.90;;;;;;5035612;28;20964;-56
2022/06/04 00:48:45;;;;;;;28.30;25.50;;;18.00;99.90;;;;;;5035680;28;20465;-56
2022/06/04 00:51:13;;;;;;;25.67;23.27;;;18.00;99.90;;;;;;5035471;28;21087;-56
2022/06/04 00:53:41;;;;;;;25.03;22.80;;;17.90;99.90;;;;;;5035648;28;20537;-56
2022/06/04 00:56:17;;;;;;;24.23;21.73;;;17.90;99.90;;;;;;5035188;28;20458;-56
2022/06/04 00:59:24;;;;;;;23.67;21.47;;;17.90;99.90;;;;;;5035582;28;20826;-56
2022/06/04 01:02:01;;;;;;;25.47;23.07;;;18.00;99.90;;;;;;4993849;28;20494;-56
2022/06/04 01:04:51;;;;;;;26.30;23.80;;;17.80;99.90;;;;;;5029267;28;20462;-56
2022/06/04 01:07:47;;;;;;;22.93;20.80;;;17.80;99.90;;;;;;5035385;28;20462;-56
2022/06/04 01:10:40;;;;;;;25.03;22.77;;;17.90;99.90;;;;;;5035111;28;20965;-56
2022/06/04 01:13:20;;;;;;;23.87;21.40;;;17.80;99.90;;;;;;5033512;28;20478;-56
2022/06/04 01:15:57;;;;;;;23.50;21.20;;;17.80;99.90;;;;;;5035091;28;20422;-55
2022/06/04 01:18:38;;;;;;;22.80;20.50;;;17.90;99.90;;;;;;5035264;28;20430;-56
2022/06/04 01:21:19;;;;;;;23.27;21.23;;;17.90;99.90;;;;;;5035400;28;20423;-56
2022/06/04 01:24:25;;;;;;;23.70;21.57;;;17.90;99.90;;;;;;5035287;28;20499;-56
2022/06/04 01:27:13;;;;;;;22.90;21.00;;;17.70;99.90;;;;;;5034846;28;20453;-55
2022/06/04 01:29:49;;;;;;;22.93;20.60;;;17.80;99.90;;;;;;5034680;28;20479;-56
2022/06/04 01:32:23;;;;;;;24.47;22.10;;;17.80;99.90;;;;;;5034625;28;20476;-56
2022/06/04 01:35:04;;;;;;;23.87;21.80;;;17.80;99.90;;;;;;5035109;28;20489;-56
2022/06/04 01:37:35;;;;;;;24.70;22.10;;;17.70;99.90;;;;;;5034542;28;20463;-56
2022/06/04 01:42:52;;;;;;;22.83;20.80;;;17.70;99.90;;;;;;5034676;28;20410;-56
2022/06/04 01:45:23;;;;;;;22.63;20.60;;;17.60;99.90;;;;;;5034554;28;20445;-56
2022/06/04 01:47:53;;;;;;;22.67;20.57;;;17.70;99.90;;;;;;5034856;28;20438;-56
2022/06/04 01:50:23;;;;;;;22.23;20.33;;;17.70;99.90;;;;;;5034222;28;21075;-55
2022/06/04 01:52:52;;;;;;;24.33;22.00;;;17.70;99.90;;;;;;5033529;28;20992;-56
2022/06/04 01:55:23;;;;;;;24.77;22.40;;;17.60;99.90;;;;;;5034168;28;20449;-56
2022/06/04 01:57:58;;;;;;;24.03;21.67;;;17.50;99.90;;;;;;5034614;28;20794;-56
2022/06/04 02:00:29;;;;;;;23.67;21.47;;;17.50;99.90;;;;;;5034480;28;20548;-56
2022/06/04 02:03:01;;;;;;;26.53;23.93;;;17.50;99.90;;;;;;5034489;28;20422;-56
2022/06/04 02:05:33;;;;;;;24.73;22.00;;;17.50;99.90;;;;;;5034527;28;20465;-56
2022/06/04 02:08:05;;;;;;;25.77;23.40;;;17.60;99.90;;;;;;5033744;28;20490;-56
2022/06/04 02:10:35;;;;;;;25.13;22.33;;;17.60;99.90;;;;;;5034361;28;20543;-56
2022/06/04 02:13:09;;;;;;;24.90;22.60;;;17.60;99.90;;;;;;5034251;28;20492;-56
2022/06/04 02:15:42;;;;;;;25.37;22.77;;;17.40;99.90;;;;;;5034335;28;20430;-56
2022/06/04 02:18:11;;;;;;;26.93;24.33;;;17.40;99.90;;;;;;5033814;28;20441;-56
2022/06/04 02:20:38;;;;;;;24.73;22.30;;;17.30;99.90;;;;;;5034223;28;20478;-56
2022/06/04 02:23:06;;;;;;;26.27;23.67;;;17.40;99.90;;;;;;5033682;28;20987;-56
2022/06/04 02:25:34;;;;;;;27.27;24.47;;;17.40;99.90;;;;;;5033562;28;20454;-56
2022/06/04 02:28:02;;;;;;;24.67;22.30;;;17.30;99.90;;;;;;5033599;28;20446;-56
2022/06/04 02:30:39;;;;;;;26.13;23.40;;;17.40;99.90;;;;;;5033842;28;20561;-56
2022/06/04 02:33:15;;;;;;;22.50;20.30;;;17.40;99.90;;;;;;5033891;28;20475;-55
2022/06/04 02:35:50;;;;;;;24.63;22.17;;;17.40;99.90;;;;;;5033829;28;20477;-56
2022/06/04 02:38:26;;;;;;;23.97;21.87;;;17.30;99.90;;;;;;5033845;28;20548;-55
2022/06/04 02:40:59;;;;;;;23.30;21.20;;;17.20;99.90;;;;;;5033457;28;20430;-56
2022/06/04 02:43:37;;;;;;;22.40;20.50;;;17.30;99.90;;;;;;5033540;28;20440;-56
2022/06/04 02:46:13;;;;;;;23.77;20.77;;;17.30;99.90;;;;;;5033415;28;20791;-56
2022/06/04 02:48:45;;;;;;;21.57;19.57;;;17.30;99.90;;;;;;5033237;28;20465;-56
2022/06/04 02:51:16;;;;;;;21.80;19.50;;;17.30;99.90;;;;;;5033380;28;20467;-56
2022/06/04 02:53:43;;;;;;;20.27;18.37;;;17.20;99.90;;;;;;5033550;28;20441;-56
2022/06/04 02:56:16;;;;;;;21.17;19.00;;;17.30;99.90;;;;;;5033351;28;20500;-56
2022/06/04 02:58:48;;;;;;;20.37;18.23;;;17.30;99.90;;;;;;5033398;28;20470;-55
2022/06/04 03:01:18;;;;;;;18.73;16.93;;;17.20;99.90;;;;;;5033611;28;20469;-56
2022/06/04 03:03:45;;;;;;;22.17;18.80;;;17.10;99.90;;;;;;5033327;28;20520;-56
2022/06/04 03:06:23;;;;;;;21.07;19.03;;;17.10;99.90;;;;;;5033486;28;20478;-55
2022/06/04 03:08:52;;;;;;;20.70;17.17;;;17.10;99.90;;;;;;5033396;28;20489;-56
2022/06/04 03:11:19;;;;;;;18.23;16.57;;;17.20;99.90;;;;;;5033012;28;20972;-56
2022/06/04 03:13:47;;;;;;;20.43;16.93;;;17.20;99.90;;;;;;5033809;28;20552;-56
2022/06/04 03:16:14;;;;;;;17.37;15.77;;;17.30;99.90;;;;;;5033079;28;20933;-55
2022/06/04 03:18:43;;;;;;;16.47;14.90;;;17.30;99.90;;;;;;5033218;28;20553;-56
2022/06/04 03:21:10;;;;;;;15.40;14.00;;;17.30;99.90;;;;;;5033370;28;20533;-56
2022/06/04 03:23:38;;;;;;;17.00;15.37;;;17.30;99.90;;;;;;5033616;28;20869;-55
2022/06/04 03:26:05;;;;;;;17.73;14.07;;;17.30;99.90;;;;;;5033137;28;20533;-55
2022/06/04 03:28:32;;;;;;;14.87;13.43;;;17.30;99.90;;;;;;5032853;28;20480;-55
2022/06/04 03:31:01;;;;;;;15.40;13.90;;;17.30;99.90;;;;;;5033224;28;20457;-55
2022/06/04 03:33:28;;;;;;;15.20;13.70;;;17.30;99.90;;;;;;5032883;28;20460;-56
2022/06/04 03:35:57;;;;;;;15.20;13.40;;;17.30;99.90;;;;;;5033286;28;20446;-56
2022/06/04 03:38:25;;;;;;;15.23;13.63;;;17.30;99.90;;;;;;5032978;28;20757;-56
2022/06/04 03:40:52;;;;;;;13.50;12.40;;;17.30;99.90;;;;;;5032890;28;20446;-56
2022/06/04 03:43:19;;;;;;;16.40;14.80;;;17.30;99.90;;;;;;5032773;28;20474;-56
2022/06/04 03:45:47;;;;;;;15.13;13.83;;;17.20;99.90;;;;;;5033190;28;20446;-56
2022/06/04 03:48:14;;;;;;;14.80;13.50;;;17.20;99.90;;;;;;5032918;28;20451;-56
2022/06/04 03:50:41;;;;;;;15.50;13.90;;;17.20;99.90;;;;;;5033093;28;20869;-56
2022/06/04 03:53:09;;;;;;;14.60;13.20;;;17.20;99.90;;;;;;5032876;28;20486;-56
2022/06/04 03:55:37;;;;;;;15.20;13.80;;;17.30;99.90;;;;;;5032560;28;20484;-57
2022/06/04 03:58:04;;;;;;;14.63;13.43;;;17.30;99.90;;;;;;5032914;28;20493;-56
2022/06/04 04:00:34;;;;;;;16.63;13.40;;;17.40;99.90;;;;;;5032953;28;20502;-56
2022/06/04 04:03:05;;;;;;;15.30;12.77;;;17.30;99.90;;;;;;5032865;28;20469;-56
2022/06/04 04:05:36;;;;;;;14.87;13.43;;;17.30;99.90;;;;;;5032649;28;20470;-56
2022/06/04 04:08:07;;;;;;;15.80;12.67;;;17.40;99.90;;;;;;5032410;28;20965;-56
2022/06/04 04:10:38;;;;;;;14.60;13.40;;;17.40;99.90;;;;;;5033111;28;20473;-56
2022/06/04 04:13:05;;;;;;;14.77;13.47;;;17.50;99.90;;;;;;5032748;28;20466;-56
2022/06/04 04:15:32;;;;;;;14.33;13.03;;;17.50;99.90;;;;;;5033043;28;20548;-56
2022/06/04 04:18:00;;;;;;;14.70;13.43;;;17.60;99.90;;;;;;5036014;28;20452;-56
2022/06/04 04:20:30;;;;;;;16.83;15.43;;;17.60;99.90;;;;;;5036335;28;20465;-56
2022/06/04 04:22:58;;;;;;;14.80;13.50;;;17.60;99.90;;;;;;5035937;28;20478;-56
2022/06/04 04:25:27;;;;;;;17.00;12.43;;;17.60;99.90;;;;;;5036036;28;20783;-56
2022/06/04 04:27:56;;;;;;;14.23;11.97;;;17.60;99.90;;;;;;5036086;28;20452;-56
2022/06/04 04:30:27;;;;;;;14.80;12.93;;;17.60;99.90;;;;;;5035908;28;20446;-56
2022/06/04 04:32:55;;;;;;;14.50;13.10;;;17.60;99.90;;;;;;5035643;28;20482;-57
2022/06/04 04:35:25;;;;;;;15.63;14.23;;;17.70;99.90;;;;;;5035819;28;20452;-56
2022/06/04 04:37:53;;;;;;;13.60;12.40;;;17.70;99.90;;;;;;5035982;28;20549;-57
2022/06/04 04:40:22;;;;;;;13.40;12.30;;;17.70;99.90;;;;;;5036019;28;20502;-56
2022/06/04 04:42:49;;;;;;;14.10;12.80;;;17.80;99.90;;;;;;5035572;28;20446;-56
2022/06/04 04:45:20;;;;;;;13.80;12.37;;;17.90;99.90;;;;;;5035984;28;20469;-56
2022/06/04 04:47:48;;;;;;;15.10;12.00;;;17.90;99.90;;;;;;5035551;28;20918;-56
2022/06/04 04:50:18;;;;;;;13.07;11.77;;;17.90;99.90;;;;;;5035794;28;20501;-57
2022/06/04 04:52:47;;;;;;;12.63;11.50;;;18.00;99.90;;;;;;5035336;28;20481;-57
2022/06/04 04:55:14;;;;;;;17.57;12.77;;;18.20;99.90;;;;;;5033043;28;20807;-57
2022/06/04 04:57:42;;;;;;;14.13;11.70;;;18.40;99.90;;;;;;5015787;28;20543;-57
2022/06/04 05:00:11;;;;;;;12.50;11.20;;;18.50;99.90;;;;;;5015495;28;20471;-57
2022/06/04 05:02:39;;;;;;;13.23;11.80;;;18.50;99.90;;;;;;5015517;28;20450;-57
2022/06/04 05:05:08;;;;;;;13.80;11.73;;;18.50;99.90;;;;;;5015872;28;20481;-57
2022/06/04 05:07:35;;;;;;;11.63;10.50;;;18.50;99.90;;;;;;5015067;28;20550;-56
2022/06/04 05:10:02;;;;;;;14.00;11.17;;;18.50;99.90;;;;;;5015697;28;20471;-56
2022/06/04 05:12:30;;;;;;;11.93;10.70;;;18.60;99.90;;;;;;5015494;28;20489;-56
2022/06/04 05:14:57;;;;;;;12.37;11.17;;;18.70;99.90;;;;;;5015353;28;20455;-56
2022/06/04 05:17:24;;;;;;;13.07;11.80;;;18.70;99.90;;;;;;5015476;28;20479;-56
2022/06/04 05:19:53;;;;;;;14.10;10.63;;;18.70;99.90;;;;;;5015165;28;20502;-56
2022/06/04 05:22:20;;;;;;;11.47;10.40;;;18.80;99.90;;;;;;5015076;28;20443;-57
2022/06/04 05:24:48;;;;;;;12.20;11.00;;;18.80;99.90;;;;;;5015454;28;20546;-57
2022/06/04 05:27:15;;;;;;;14.00;10.73;;;18.90;99.90;;;;;;5015001;28;20451;-57
2022/06/04 05:29:42;;;;;;;10.83;9.83;;;19.00;99.90;;;;;;5014968;28;20513;-57
2022/06/04 05:32:10;;;;;;;12.57;11.20;;;19.00;99.90;;;;;;5014806;28;20573;-57
2022/06/04 05:34:38;;;;;;;12.13;10.90;;;19.10;99.90;;;;;;5014948;28;20447;-56
2022/06/04 05:37:07;;;;;;;12.07;10.93;;;19.20;99.90;;;;;;5015104;28;20487;-56
2022/06/04 05:39:35;;;;;;;13.03;11.83;;;19.20;99.90;;;;;;5015293;28;21036;-57
2022/06/04 05:42:04;;;;;;;12.70;11.10;;;19.10;99.90;;;;;;5014641;28;20884;-56
2022/06/04 05:44:31;;;;;;;11.60;10.57;;;19.10;99.90;;;;;;5015071;28;20526;-56
2022/06/04 05:46:58;;;;;;;12.00;10.70;;;19.10;99.90;;;;;;5014893;28;20450;-57
2022/06/04 05:49:26;;;;;;;10.93;9.90;;;19.10;99.90;;;;;;5014930;28;20529;-57
2022/06/04 05:51:53;;;;;;;14.60;9.87;;;19.00;99.90;;;;;;5014654;28;20546;-56
2022/06/04 05:54:22;;;;;;;11.33;10.33;;;19.20;99.90;;;;;;5014680;28;20435;-56
2022/06/04 05:56:51;;;;;;;12.77;11.60;;;19.20;99.90;;;;;;5014365;28;20534;-57
2022/06/04 05:59:20;;;;;;;11.23;10.30;;;19.20;99.90;;;;;;5014715;28;20557;-56
2022/06/04 06:01:48;;;;;;;12.23;9.87;;;19.10;99.90;;;;;;5014654;28;20531;-57
2022/06/04 06:04:17;;;;;;;11.80;10.67;;;19.10;99.90;;;;;;5014655;28;20473;-57
2022/06/04 06:06:51;;;;;;;11.67;10.67;;;18.90;99.90;;;;;;5014289;28;21005;-56
2022/06/04 06:09:22;;;;;;;11.57;10.37;;;18.90;99.90;;;;;;5014173;28;20486;-56
2022/06/04 06:11:50;;;;;;;13.70;11.17;;;18.90;99.90;;;;;;5014435;28;20432;-56
2022/06/04 06:14:18;;;;;;;9.53;8.73;;;19.00;99.90;;;;;;5014540;28;20807;-57
2022/06/04 06:16:48;;;;;;;7.73;7.10;;;18.90;99.90;;;;;;5014318;28;20443;-57
2022/06/04 06:19:17;;;;;;;8.20;7.50;;;18.90;99.90;;;;;;5014432;28;20498;-56
2022/06/04 06:21:45;;;;;;;10.00;8.27;;;18.80;99.90;;;;;;5013907;28;20942;-57
2022/06/04 06:24:16;;;;;;;9.00;8.10;;;18.70;99.90;;;;;;5014291;28;20493;-57
2022/06/04 06:26:48;;;;;;;9.00;7.40;;;18.70;99.90;;;;;;5014074;28;20447;-57
2022/06/04 06:29:17;;;;;;;11.10;9.17;;;18.60;99.90;;;;;;5014296;28;20858;-57
2022/06/04 06:31:44;;;;;;;10.60;8.67;;;18.50;99.90;;;;;;5014083;28;20465;-57
2022/06/04 06:34:11;;;;;;;9.70;8.80;;;18.50;99.90;;;;;;5013917;28;20479;-57
2022/06/04 06:36:40;;;;;;;11.97;10.83;;;18.50;99.90;;;;;;5014074;28;20475;-56
2022/06/04 06:39:07;;;;;;;11.87;10.20;;;18.50;99.90;;;;;;5013784;28;20478;-57
2022/06/04 06:41:34;;;;;;;10.17;9.37;;;18.60;99.90;;;;;;5013965;28;20480;-57
2022/06/04 06:44:03;;;;;;;11.60;10.40;;;18.60;99.90;;;;;;5014074;28;20534;-57
2022/06/04 06:46:35;;;;;;;11.90;9.17;;;18.60;99.90;;;;;;5013655;28;20447;-57
2022/06/04 06:49:04;;;;;;;11.00;9.33;;;18.60;99.90;;;;;;5013934;28;20467;-57
2022/06/04 06:51:34;;;;;;;9.93;9.03;;;18.60;99.90;;;;;;5013779;28;20486;-57
2022/06/04 06:54:02;;;;;;;14.03;10.23;;;18.70;99.90;;;;;;5013558;28;21064;-57
2022/06/04 06:56:32;;;;;;;10.53;9.53;;;18.80;99.90;;;;;;5025890;28;20446;-56
2022/06/04 06:59:00;;;;;;;10.77;9.97;;;18.80;99.90;;;;;;5033287;28;20802;-57
2022/06/04 07:01:31;;;;;;;9.97;9.17;;;19.00;99.90;;;;;;5033094;28;20522;-56
2022/06/04 07:03:59;;;;;;;11.67;9.97;;;19.00;99.90;;;;;;5033494;28;20442;-56
2022/06/04 07:06:32;;;;;;;14.23;10.07;;;18.90;99.90;;;;;;5033092;28;20529;-56
2022/06/04 07:09:00;;;;;;;10.87;9.87;;;18.80;99.90;;;;;;5032973;28;20574;-57
2022/06/04 07:11:27;;;;;;;12.33;11.03;;;18.70;99.90;;;;;;5033082;28;20444;-57
2022/06/04 07:13:55;;;;;;;12.30;11.20;;;18.70;99.90;;;;;;5033329;28;20482;-56
2022/06/04 07:16:22;;;;;;;10.83;9.30;;;18.80;99.90;;;;;;5033299;28;20500;-56
2022/06/04 07:18:51;;;;;;;14.53;10.50;;;18.80;99.90;;;;;;5032975;28;20472;-57
2022/06/04 07:21:19;;;;;;;11.63;10.50;;;18.90;99.90;;;;;;5032962;28;20434;-56
2022/06/04 07:23:46;;;;;;;12.53;11.27;;;19.10;99.90;;;;;;5033424;28;20442;-56
2022/06/04 07:26:14;;;;;;;12.13;11.03;;;19.30;99.90;;;;;;5032988;28;20545;-56
2022/06/04 07:28:41;;;;;;;10.13;9.10;;;19.40;99.90;;;;;;5033247;28;20472;-57
2022/06/04 07:31:10;;;;;;;10.03;9.13;;;19.70;99.90;;;;;;5032791;28;21000;-56
2022/06/04 07:33:38;;;;;;;10.90;9.33;;;20.20;99.90;;;;;;5032847;28;20997;-57
2022/06/04 07:36:15;;;;;;;11.70;9.00;;;20.70;99.90;;;;;;5033113;28;20446;-57
2022/06/04 07:38:49;;;;;;;10.40;9.00;;;21.20;99.90;;;;;;5033244;28;20811;-57
2022/06/04 07:41:18;;;;;;;10.53;9.53;;;21.30;99.90;;;;;;5033050;28;20518;-56
2022/06/04 07:43:46;;;;;;;11.40;9.70;;;21.20;99.90;;;;;;5033249;28;20442;-56
2022/06/04 07:46:17;;;;;;;10.90;10.00;;;21.30;99.90;;;;;;5033023;28;20872;-56
2022/06/04 07:48:47;;;;;;;11.00;10.17;;;21.20;99.90;;;;;;5032912;28;20516;-56
2022/06/04 07:51:16;;;;;;;10.87;9.63;;;20.90;99.90;;;;;;5034265;28;20446;-56
2022/06/04 07:53:47;;;;;;;11.10;9.50;;;20.90;99.90;;;;;;5036449;28;20482;-57
2022/06/04 07:56:18;;;;;;;10.10;9.20;;;20.80;99.90;;;;;;5036559;28;20481;-57
2022/06/04 07:58:46;;;;;;;12.57;10.47;;;20.80;99.90;;;;;;5036826;28;20488;-56
2022/06/04 08:01:16;;;;;;;13.60;10.40;;;20.60;99.90;;;;;;5036446;28;20456;-57
2022/06/04 08:03:47;;;;;;;13.13;11.80;;;20.70;99.90;;;;;;5036315;28;20865;-57
2022/06/04 08:06:17;;;;;;;13.13;10.80;;;20.80;99.90;;;;;;5036529;28;20446;-57
2022/06/04 08:08:47;;;;;;;13.23;11.97;;;20.90;99.90;;;;;;5035956;28;20980;-56
2022/06/04 08:14:03;;;;;;;13.40;11.90;;;21.30;99.90;;;;;;5036170;28;20461;-56
2022/06/04 08:16:31;;;;;;;13.70;12.30;;;21.80;99.90;;;;;;5036238;28;20521;-56
2022/06/04 08:18:59;;;;;;;14.10;12.60;;;21.80;99.90;;;;;;5036239;28;20549;-56
2022/06/04 08:21:27;;;;;;;13.67;12.57;;;21.90;99.90;;;;;;5036279;28;20537;-57
2022/06/04 08:23:54;;;;;;;12.67;11.20;;;22.20;99.90;;;;;;5035827;28;20450;-57
2022/06/04 08:26:22;;;;;;;13.50;12.40;;;21.90;99.90;;;;;;5035777;28;20485;-56
2022/06/04 08:28:50;;;;;;;12.23;11.13;;;22.00;99.90;;;;;;5036090;28;20553;-57
2022/06/04 08:31:17;;;;;;;13.10;11.90;;;21.70;99.90;;;;;;5036127;28;20449;-57
2022/06/04 08:33:45;;;;;;;12.57;11.37;;;21.50;99.90;;;;;;5035721;28;20481;-57
2022/06/04 08:36:14;;;;;;;11.80;10.80;;;21.40;99.90;;;;;;5035741;28;20972;-57
2022/06/04 08:38:43;;;;;;;12.37;11.27;;;21.50;99.90;;;;;;5035960;28;20478;-57
2022/06/04 08:41:20;;;;;;;12.90;11.73;;;21.60;99.90;;;;;;5035952;28;20446;-57
2022/06/04 08:43:53;;;;;;;13.83;12.63;;;22.10;99.90;;;;;;5035774;28;20434;-57
2022/06/04 08:46:26;;;;;;;13.20;11.43;;;22.70;99.90;;;;;;5035883;28;20441;-57
2022/06/04 08:48:55;;;;;;;14.00;11.60;;;23.50;99.90;;;;;;5035565;28;20509;-57
2022/06/04 08:51:26;;;;;;;11.70;10.50;;;24.40;99.90;;;;;;5035286;28;20457;-57
2022/06/04 08:53:57;;;;;;;11.53;10.60;;;25.00;99.90;;;;;;5035699;28;20470;-56
2022/06/04 08:59:22;;;;;;;10.47;9.57;;;25.80;99.90;;;;;;5035221;28;20540;-57
2022/06/04 09:01:54;;;;;;;9.80;8.27;;;26.30;99.90;;;;;;5035276;28;20492;-56
2022/06/04 09:04:35;;;;;;;10.20;9.20;;;26.40;99.90;;;;;;5035112;28;20431;-56
2022/06/04 09:07:08;;;;;;;9.67;8.80;;;26.10;99.90;;;;;;5035622;28;20430;-57
2022/06/04 09:09:42;;;;;;;7.53;6.80;;;26.40;99.90;;;;;;5034058;28;20488;-57
2022/06/04 09:12:22;;;;;;;7.80;7.20;;;26.30;99.90;;;;;;5035294;28;20480;-57
2022/06/04 09:14:54;;;;;;;8.17;7.57;;;25.90;99.90;;;;;;5035005;28;20471;-57
2022/06/04 09:17:29;;;;;;;8.07;7.47;;;26.00;99.90;;;;;;5034976;28;20442;-56
2022/06/04 09:19:58;;;;;;;9.43;8.27;;;26.50;99.90;;;;;;5035240;28;20468;-57
2022/06/04 09:22:34;;;;;;;9.27;8.37;;;27.00;99.90;;;;;;5034782;28;21008;-57
2022/06/04 09:25:03;;;;;;;8.57;7.87;;;26.90;99.90;;;;;;5034876;28;20431;-56
2022/06/04 09:27:39;;;;;;;10.40;9.40;;;27.50;99.90;;;;;;5035138;28;20546;-58
2022/06/04 09:30:17;;;;;;;10.80;8.60;;;28.50;99.90;;;;;;5034608;28;20552;-58
2022/06/04 09:33:02;;;;;;;9.90;9.00;;;27.80;99.90;;;;;;5035060;28;20426;-56
2022/06/04 09:35:32;;;;;;;9.60;8.70;;;27.30;99.90;;;;;;5035083;28;20465;-56
2022/06/04 09:37:59;;;;;;;10.50;8.50;;;26.50;99.90;;;;;;5034428;28;20465;-56
2022/06/04 09:40:31;;;;;;;9.93;8.93;;;25.90;99.90;;;;;;5034787;28;20474;-56
2022/06/04 09:43:06;;;;;;;9.97;9.10;;;25.60;99.90;;;;;;5034457;28;20883;-56
2022/06/04 09:45:34;;;;;;;10.53;9.53;;;24.80;99.90;;;;;;5034679;28;20458;-56
2022/06/04 09:48:01;;;;;;;11.73;10.53;;;24.50;99.90;;;;;;5034708;28;20478;-56
2022/06/04 09:50:32;;;;;;;10.77;9.87;;;24.20;99.90;;;;;;5034675;28;20557;-56
2022/06/04 09:53:04;;;;;;;10.40;9.30;;;24.10;99.90;;;;;;5034201;28;20441;-57
2022/06/04 09:55:34;;;;;;;12.10;10.50;;;24.10;99.90;;;;;;5034116;28;20457;-57
2022/06/04 09:58:05;;;;;;;9.90;9.10;;;24.00;99.90;;;;;;5034424;28;20437;-57
2022/06/04 10:00:34;;;;;;;12.40;11.20;;;23.90;99.90;;;;;;5034470;28;20466;-56
2022/06/04 10:03:05;;;;;;;12.10;10.87;;;23.90;99.90;;;;;;5034307;28;20552;-57
2022/06/04 10:05:33;;;;;;;11.47;10.57;;;23.80;99.90;;;;;;5034465;28;20445;-57
2022/06/04 10:08:01;;;;;;;13.10;12.03;;;24.00;99.90;;;;;;5033919;28;20564;-56
2022/06/04 10:10:38;;;;;;;12.57;11.30;;;24.00;99.90;;;;;;5033963;28;21032;-56
2022/06/04 10:15:58;;;;;;;12.30;11.20;;;24.30;99.90;;;;;;5034082;28;20767;-56
2022/06/04 10:18:28;;;;;;;11.80;10.57;;;24.20;99.90;;;;;;5033817;28;20442;-57
2022/06/04 10:21:01;;;;;;;11.30;10.20;;;23.90;99.90;;;;;;5033941;28;20517;-56
2022/06/04 10:23:30;;;;;;;11.67;10.67;;;23.90;99.90;;;;;;5033874;28;20505;-55
2022/06/04 10:26:17;;;;;;;12.10;11.10;;;23.70;99.90;;;;;;5033825;28;20442;-56
2022/06/04 10:28:54;;;;;;;13.00;11.20;;;23.50;99.90;;;;;;5033562;28;20996;-57
2022/06/04 10:31:31;;;;;;;13.97;12.77;;;23.30;99.90;;;;;;5033916;28;20430;-56
2022/06/04 10:34:05;;;;;;;11.73;10.60;;;23.10;99.90;;;;;;5033569;28;20477;-57
2022/06/04 10:36:49;;;;;;;11.50;10.50;;;23.10;99.90;;;;;;5033643;28;20435;-57
2022/06/04 10:39:28;;;;;;;10.50;9.47;;;23.00;99.90;;;;;;5033227;28;20915;-56
2022/06/04 10:42:03;;;;;;;10.17;9.27;;;23.00;99.90;;;;;;5033614;28;20479;-56
2022/06/04 10:44:41;;;;;;;10.07;9.17;;;23.30;99.90;;;;;;5033088;28;20931;-55
2022/06/04 10:47:17;;;;;;;10.30;8.83;;;23.40;99.90;;;;;;5033713;28;20430;-56
2022/06/04 10:50:08;;;;;;;8.70;8.00;;;23.60;99.90;;;;;;5033333;28;20899;-56
2022/06/04 10:52:42;;;;;;;9.93;8.90;;;23.50;99.90;;;;;;5033560;28;20529;-55
2022/06/04 10:55:16;;;;;;;10.30;9.20;;;23.30;99.90;;;;;;5031885;28;20828;-55
2022/06/04 10:57:53;;;;;;;9.37;8.40;;;23.10;99.90;;;;;;5013407;28;20462;-55
2022/06/04 11:00:23;;;;;;;10.70;9.80;;;22.90;99.90;;;;;;5013327;28;20459;-56
2022/06/04 11:02:54;;;;;;;11.77;10.77;;;22.70;99.90;;;;;;5013814;28;20780;-55
2022/06/04 11:05:25;;;;;;;10.33;9.43;;;22.60;99.90;;;;;;5013166;28;20427;-56
2022/06/04 11:07:59;;;;;;;13.40;12.40;;;22.50;99.90;;;;;;5013399;28;20482;-56
2022/06/04 11:10:31;;;;;;;13.20;11.90;;;22.50;99.90;;;;;;5013609;28;20819;-56
2022/06/04 11:13:08;;;;;;;14.37;13.17;;;22.30;99.90;;;;;;5013695;28;20467;-57
2022/06/04 11:15:40;;;;;;;15.37;13.77;;;22.30;99.90;;;;;;5013575;28;20551;-55
2022/06/04 11:18:14;;;;;;;14.53;13.23;;;22.50;99.90;;;;;;5013257;28;20431;-55
2022/06/04 11:20:48;;;;;;;17.37;15.87;;;22.30;99.90;;;;;;5013666;28;20438;-56
2022/06/04 11:23:37;;;;;;;18.00;12.90;;;22.30;99.90;;;;;;5013493;28;20456;-56
2022/06/04 11:26:10;;;;;;;17.10;15.40;;;22.20;99.90;;;;;;5025279;28;20791;-56
2022/06/04 11:28:39;;;;;;;16.27;14.80;;;22.20;99.90;;;;;;5037018;28;20993;-55
2022/06/04 11:31:24;;;;;;;20.83;17.30;;;22.10;99.90;;;;;;5037184;28;20446;-56
2022/06/04 11:34:10;;;;;;;18.53;16.83;;;22.10;99.90;;;;;;5036748;28;20561;-55
2022/06/04 11:36:47;;;;;;;18.97;17.17;;;22.00;99.90;;;;;;5036954;28;20445;-56
2022/06/04 11:39:35;;;;;;;18.00;16.40;;;22.10;99.90;;;;;;5036714;28;20551;-56
2022/06/04 11:42:10;;;;;;;19.30;17.57;;;22.10;99.90;;;;;;5036672;28;20525;-56
2022/06/04 11:45:21;;;;;;;19.53;17.73;;;22.00;99.90;;;;;;5036785;28;20426;-56
2022/06/04 11:48:11;;;;;;;20.23;18.27;;;22.10;99.90;;;;;;5032108;28;20458;-55
2022/06/04 11:50:46;;;;;;;19.07;17.37;;;21.90;99.90;;;;;;5036682;28;20449;-56
2022/06/04 11:53:25;;;;;;;18.47;16.67;;;22.00;99.90;;;;;;5036437;28;20440;-56
2022/06/04 11:55:59;;;;;;;18.53;16.73;;;22.10;99.90;;;;;;5028983;28;20483;-55
2022/06/04 11:58:47;;;;;;;18.93;17.23;;;22.20;99.90;;;;;;5016598;28;20498;-56
2022/06/04 12:01:21;;;;;;;19.00;17.20;;;22.50;99.90;;;;;;5016886;28;20957;-56
2022/06/04 12:03:56;;;;;;;19.73;17.93;;;22.90;99.90;;;;;;5016902;28;20494;-56
2022/06/04 12:06:31;;;;;;;17.30;15.97;;;23.20;99.90;;;;;;5016743;28;20439;-55
2022/06/04 12:09:02;;;;;;;17.23;15.73;;;23.20;99.90;;;;;;5016414;28;21024;-56
2022/06/04 12:11:38;;;;;;;17.87;16.37;;;23.40;99.90;;;;;;5016707;28;20450;-56
2022/06/04 12:14:17;;;;;;;17.47;15.60;;;23.50;99.90;;;;;;5016747;28;20467;-57
2022/06/04 12:17:08;;;;;;;19.50;17.70;;;23.80;99.90;;;;;;5016639;28;20435;-57
2022/06/04 12:25:13;;;;;;;16.07;14.77;;;23.90;99.90;;;;;;5018073;28;20411;-56
2022/06/04 12:27:56;;;;;;;14.00;12.80;;;24.10;99.90;;;;;;5035905;28;20450;-56
2022/06/04 12:30:39;;;;;;;16.00;14.60;;;23.90;99.90;;;;;;5036062;28;20510;-56
2022/06/04 12:33:17;;;;;;;15.23;13.77;;;23.90;99.90;;;;;;5035936;28;20521;-56
2022/06/04 12:35:56;;;;;;;15.93;14.50;;;24.10;99.90;;;;;;5036295;28;20592;-56
2022/06/04 12:38:24;;;;;;;15.43;14.23;;;24.10;99.90;;;;;;5035270;28;20936;-56
2022/06/04 12:40:52;;;;;;;15.57;14.27;;;24.20;99.90;;;;;;5036065;28;20813;-55
2022/06/04 12:43:33;;;;;;;15.73;14.43;;;24.10;99.90;;;;;;5035896;28;20537;-56
2022/06/04 12:46:27;;;;;;;18.43;16.77;;;24.90;99.90;;;;;;5036070;28;20426;-56
2022/06/04 12:49:01;;;;;;;18.20;16.67;;;25.20;99.90;;;;;;5034156;28;20544;-56
2022/06/04 12:51:49;;;;;;;17.07;15.53;;;24.60;99.90;;;;;;5035622;28;20430;-56
2022/06/04 12:54:30;;;;;;;17.53;15.97;;;24.50;99.90;;;;;;5035585;28;20474;-57
2022/06/04 12:57:00;;;;;;;17.33;16.00;;;24.40;99.90;;;;;;5035411;28;20489;-56
2022/06/04 12:59:40;;;;;;;15.43;14.17;;;24.20;99.90;;;;;;5035193;28;21056;-56
2022/06/04 13:02:27;;;;;;;14.83;13.57;;;24.20;99.90;;;;;;5035516;28;20437;-56
2022/06/04 13:05:12;;;;;;;15.07;13.93;;;24.10;99.90;;;;;;5035386;28;20936;-56
2022/06/04 13:07:51;;;;;;;17.17;15.77;;;24.10;99.90;;;;;;5035053;28;20549;-56
2022/06/04 13:10:28;;;;;;;17.50;16.00;;;24.40;99.90;;;;;;5035422;28;20474;-57
2022/06/04 13:13:02;;;;;;;15.03;13.57;;;24.60;99.90;;;;;;5035331;28;20452;-57
2022/06/04 13:15:40;;;;;;;16.10;14.60;;;24.30;99.90;;;;;;5034982;28;20465;-56
2022/06/04 13:18:20;;;;;;;16.30;14.20;;;24.00;99.90;;;;;;5035162;28;20509;-56